Pagrindinis puslapis
METAR-TAF:

METAR-TAF

Oro uostai :

Belenas, Para, Brazilija

platuma: 01-23S, ilguma: 048-29W, Aukštis: 16 m

Dabartinis oras

Ataskaita buvo paskelbta 6 minutes, ne 13:00 UTC
Vėjas 7 kt iš Rytų
Temperatūra 29°C
Drėgmė 74%
Slėgis 1014 hPa
Matomumas 10 km arba daugiau
Išsisklaidę debesys ne aukštis 2200 ft
Išsisklaidę debesys ne aukštis 7000 ft

METAR: SBBE 311300Z 08007KT 9999 SCT022 SCT070 29/24 Q1014

Laikas: 10:06 (13:06 UTC)

Prognozė

Ataskaita buvo paskelbta 4 valandos ir 6 minutes, ne 09:00 UTC
Prognozė galioja nuo 31 metu 12 UTC su 01 metu 12 UTC
Vėjas 8 kt iš Rytų
Matomumas 10 km arba daugiau
nėra debesų žemiau 1500 m ir nėra kamuolinių lietaus debesų
Tikimybė 40% :
Laikinai
nuo 31 metu 16 UTC su 31 metu 19 UTC
Vėjas 7 kt iš Šiaurės Rytų
Matomumas: 8000 m
Išsisklaidę debesys ne aukštis 3000 ft
Mažai debesys ne aukštis 3500 ft, Liūtiniai kamuoliniai debesys.
perkūnija, lietus

TAF: SBBE 310900Z 3112/0112 09008KT CAVOK TX33/3118Z TN24/0107Z PROB40 TEMPO 3116/3119 05007KT 8000 TSRA SCT030 FEW035CB RMK PEB

Orai ataskaitas ir orų prognozės (METAR, TAF).

turimą stotys yra geltonos ir raudonos taškus žemėlapyje.

Perkelti pele per norėdami pamatyti stoties vardą.

Tada spustelėkite, norėdami matyti oro stebėjimo ir prognozės.

Norėdami pakeisti žemėlapį: spustelėkite ant žalios mygtukų su juodo kryžiaus žemyn,; žalią mygtuką su brūkšneliu, jei norite nutolinti; arba žalių rodyklių gretimoms žemėlapius.


METAR-TAF: